sensor_id;sensor_type;location;lat;lon;timestamp;temperature;humidity
33207;DHT22;19565;46.602;11.534;2023-06-14T00:00:28;19.50;99.90
33207;DHT22;19565;46.602;11.534;2023-06-14T00:02:57;19.50;99.90
33207;DHT22;19565;46.602;11.534;2023-06-14T00:05:26;19.50;99.90
33207;DHT22;19565;46.602;11.534;2023-06-14T00:07:57;19.50;99.90
33207;DHT22;19565;46.602;11.534;2023-06-14T00:10:27;19.50;99.90
33207;DHT22;19565;46.602;11.534;2023-06-14T00:12:57;19.50;99.90
33207;DHT22;19565;46.602;11.534;2023-06-14T00:15:26;19.50;99.90
33207;DHT22;19565;46.602;11.534;2023-06-14T00:17:54;19.40;99.90
33207;DHT22;19565;46.602;11.534;2023-06-14T00:20:23;19.40;99.90
33207;DHT22;19565;46.602;11.534;2023-06-14T00:22:52;19.30;99.90
33207;DHT22;19565;46.602;11.534;2023-06-14T00:25:23;19.20;99.90
33207;DHT22;19565;46.602;11.534;2023-06-14T00:27:56;19.20;99.90
33207;DHT22;19565;46.602;11.534;2023-06-14T00:30:24;19.20;99.90
33207;DHT22;19565;46.602;11.534;2023-06-14T00:32:57;19.20;99.90
33207;DHT22;19565;46.602;11.534;2023-06-14T00:35:26;19.20;99.90
33207;DHT22;19565;46.602;11.534;2023-06-14T00:37:54;19.20;99.90
33207;DHT22;19565;46.602;11.534;2023-06-14T00:40:24;19.20;99.90
33207;DHT22;19565;46.602;11.534;2023-06-14T00:42:52;19.20;99.90
33207;DHT22;19565;46.602;11.534;2023-06-14T00:45:20;19.20;99.90
33207;DHT22;19565;46.602;11.534;2023-06-14T00:47:50;19.20;99.90
33207;DHT22;19565;46.602;11.534;2023-06-14T00:50:22;19.10;99.90
33207;DHT22;19565;46.602;11.534;2023-06-14T00:52:50;19.10;99.90
33207;DHT22;19565;46.602;11.534;2023-06-14T00:55:19;19.10;99.90
33207;DHT22;19565;46.602;11.534;2023-06-14T00:57:49;19.10;99.90
33207;DHT22;19565;46.602;11.534;2023-06-14T01:00:18;19.10;99.90
33207;DHT22;19565;46.602;11.534;2023-06-14T01:02:46;19.10;99.90
33207;DHT22;19565;46.602;11.534;2023-06-14T01:05:15;19.10;99.90
33207;DHT22;19565;46.602;11.534;2023-06-14T01:07:53;19.00;99.90
33207;DHT22;19565;46.602;11.534;2023-06-14T01:10:35;18.90;99.90
33207;DHT22;19565;46.602;11.534;2023-06-14T01:13:10;18.80;99.90
33207;DHT22;19565;46.602;11.534;2023-06-14T01:15:41;18.90;99.90
33207;DHT22;19565;46.602;11.534;2023-06-14T01:18:11;18.90;99.90
33207;DHT22;19565;46.602;11.534;2023-06-14T01:20:46;18.90;99.90
33207;DHT22;19565;46.602;11.534;2023-06-14T01:23:18;19.00;99.90
33207;DHT22;19565;46.602;11.534;2023-06-14T01:25:46;19.00;99.90
33207;DHT22;19565;46.602;11.534;2023-06-14T01:28:20;18.90;99.90
33207;DHT22;19565;46.602;11.534;2023-06-14T01:30:50;18.90;99.90
33207;DHT22;19565;46.602;11.534;2023-06-14T01:33:21;18.90;99.90
33207;DHT22;19565;46.602;11.534;2023-06-14T01:35:51;18.90;99.90
33207;DHT22;19565;46.602;11.534;2023-06-14T01:38:23;18.90;99.90
33207;DHT22;19565;46.602;11.534;2023-06-14T01:40:54;18.90;99.90
33207;DHT22;19565;46.602;11.534;2023-06-14T01:43:23;18.90;99.90
33207;DHT22;19565;46.602;11.534;2023-06-14T01:45:53;18.90;99.90
33207;DHT22;19565;46.602;11.534;2023-06-14T01:48:22;18.90;99.90
33207;DHT22;19565;46.602;11.534;2023-06-14T01:50:52;18.90;99.90
33207;DHT22;19565;46.602;11.534;2023-06-14T01:53:21;18.80;99.90
33207;DHT22;19565;46.602;11.534;2023-06-14T01:55:49;18.70;99.90
33207;DHT22;19565;46.602;11.534;2023-06-14T01:58:20;18.70;99.90
33207;DHT22;19565;46.602;11.534;2023-06-14T02:00:48;18.60;99.90
33207;DHT22;19565;46.602;11.534;2023-06-14T02:03:17;18.60;99.90
33207;DHT22;19565;46.602;11.534;2023-06-14T02:05:46;18.70;99.90
33207;DHT22;19565;46.602;11.534;2023-06-14T02:08:14;18.50;99.90
33207;DHT22;19565;46.602;11.534;2023-06-14T02:10:44;18.40;99.90
33207;DHT22;19565;46.602;11.534;2023-06-14T02:13:12;18.50;99.90
33207;DHT22;19565;46.602;11.534;2023-06-14T02:15:40;18.60;99.90
33207;DHT22;19565;46.602;11.534;2023-06-14T02:18:11;18.60;99.90
33207;DHT22;19565;46.602;11.534;2023-06-14T02:20:40;18.70;99.90
33207;DHT22;19565;46.602;11.534;2023-06-14T02:23:08;18.80;99.90
33207;DHT22;19565;46.602;11.534;2023-06-14T02:25:36;18.80;99.90
33207;DHT22;19565;46.602;11.534;2023-06-14T02:28:05;18.80;99.90
33207;DHT22;19565;46.602;11.534;2023-06-14T02:30:33;18.80;99.90
33207;DHT22;19565;46.602;11.534;2023-06-14T02:33:01;18.80;99.90
33207;DHT22;19565;46.602;11.534;2023-06-14T02:35:31;18.70;99.90
33207;DHT22;19565;46.602;11.534;2023-06-14T02:37:59;18.60;99.90
33207;DHT22;19565;46.602;11.534;2023-06-14T02:40:27;18.60;99.90
33207;DHT22;19565;46.602;11.534;2023-06-14T02:42:55;18.60;99.90
33207;DHT22;19565;46.602;11.534;2023-06-14T02:45:24;18.60;99.90
33207;DHT22;19565;46.602;11.534;2023-06-14T02:47:52;18.60;99.90
33207;DHT22;19565;46.602;11.534;2023-06-14T02:50:22;18.50;99.90
33207;DHT22;19565;46.602;11.534;2023-06-14T02:52:52;18.50;99.90
33207;DHT22;19565;46.602;11.534;2023-06-14T02:55:22;18.40;99.90
33207;DHT22;19565;46.602;11.534;2023-06-14T02:57:50;18.40;99.90
33207;DHT22;19565;46.602;11.534;2023-06-14T03:00:20;18.30;99.90
33207;DHT22;19565;46.602;11.534;2023-06-14T03:02:49;18.20;99.90
33207;DHT22;19565;46.602;11.534;2023-06-14T03:05:18;18.20;99.90
33207;DHT22;19565;46.602;11.534;2023-06-14T03:07:48;18.20;99.90
33207;DHT22;19565;46.602;11.534;2023-06-14T03:10:17;18.10;99.90
33207;DHT22;19565;46.602;11.534;2023-06-14T03:12:45;18.10;99.90
33207;DHT22;19565;46.602;11.534;2023-06-14T03:15:13;18.20;99.90
33207;DHT22;19565;46.602;11.534;2023-06-14T03:17:42;18.20;99.90
33207;DHT22;19565;46.602;11.534;2023-06-14T03:20:14;18.20;99.90
33207;DHT22;19565;46.602;11.534;2023-06-14T03:22:43;18.20;99.90
33207;DHT22;19565;46.602;11.534;2023-06-14T03:25:13;18.10;99.90
33207;DHT22;19565;46.602;11.534;2023-06-14T03:27:41;18.10;99.90
33207;DHT22;19565;46.602;11.534;2023-06-14T03:30:10;18.10;99.90
33207;DHT22;19565;46.602;11.534;2023-06-14T03:32:38;18.10;99.90
33207;DHT22;19565;46.602;11.534;2023-06-14T03:35:07;18.10;99.90
33207;DHT22;19565;46.602;11.534;2023-06-14T03:37:38;18.00;99.90
33207;DHT22;19565;46.602;11.534;2023-06-14T03:40:06;18.00;99.90
33207;DHT22;19565;46.602;11.534;2023-06-14T03:42:34;18.00;99.90
33207;DHT22;19565;46.602;11.534;2023-06-14T03:45:03;17.90;99.90
33207;DHT22;19565;46.602;11.534;2023-06-14T03:47:32;18.00;99.90
33207;DHT22;19565;46.602;11.534;2023-06-14T03:50:00;17.90;99.90
33207;DHT22;19565;46.602;11.534;2023-06-14T03:52:29;17.90;99.90
33207;DHT22;19565;46.602;11.534;2023-06-14T03:54:59;17.90;99.90
33207;DHT22;19565;46.602;11.534;2023-06-14T03:57:30;17.80;99.90
33207;DHT22;19565;46.602;11.534;2023-06-14T03:59:58;17.80;99.90
33207;DHT22;19565;46.602;11.534;2023-06-14T04:02:26;17.80;99.90
33207;DHT22;19565;46.602;11.534;2023-06-14T04:04:55;17.90;99.90
33207;DHT22;19565;46.602;11.534;2023-06-14T04:07:23;17.90;99.90
33207;DHT22;19565;46.602;11.534;2023-06-14T04:09:55;17.90;99.90
33207;DHT22;19565;46.602;11.534;2023-06-14T04:12:24;17.80;99.90
33207;DHT22;19565;46.602;11.534;2023-06-14T04:14:53;17.80;99.90
33207;DHT22;19565;46.602;11.534;2023-06-14T04:17:29;17.80;99.90
33207;DHT22;19565;46.602;11.534;2023-06-14T04:19:59;17.80;99.90
33207;DHT22;19565;46.602;11.534;2023-06-14T04:22:27;17.80;99.90
33207;DHT22;19565;46.602;11.534;2023-06-14T04:24:56;17.80;99.90
33207;DHT22;19565;46.602;11.534;2023-06-14T04:27:32;17.80;99.90
33207;DHT22;19565;46.602;11.534;2023-06-14T04:30:03;17.80;99.90
33207;DHT22;19565;46.602;11.534;2023-06-14T04:32:31;17.80;99.90
33207;DHT22;19565;46.602;11.534;2023-06-14T04:35:00;17.80;99.90
33207;DHT22;19565;46.602;11.534;2023-06-14T04:37:30;17.90;99.90
33207;DHT22;19565;46.602;11.534;2023-06-14T04:39:58;17.90;99.90
33207;DHT22;19565;46.602;11.534;2023-06-14T04:42:27;17.90;99.90
33207;DHT22;19565;46.602;11.534;2023-06-14T04:44:58;17.90;99.90
33207;DHT22;19565;46.602;11.534;2023-06-14T04:47:27;17.90;99.90
33207;DHT22;19565;46.602;11.534;2023-06-14T04:49:57;17.90;99.90
33207;DHT22;19565;46.602;11.534;2023-06-14T04:52:27;17.90;99.90
33207;DHT22;19565;46.602;11.534;2023-06-14T04:54:56;17.90;99.90
33207;DHT22;19565;46.602;11.534;2023-06-14T04:57:24;17.80;99.90
33207;DHT22;19565;46.602;11.534;2023-06-14T04:59:52;17.90;99.90
33207;DHT22;19565;46.602;11.534;2023-06-14T05:02:24;17.90;99.90
33207;DHT22;19565;46.602;11.534;2023-06-14T05:04:53;17.90;99.90
33207;DHT22;19565;46.602;11.534;2023-06-14T05:07:23;18.00;99.90
33207;DHT22;19565;46.602;11.534;2023-06-14T05:09:52;18.00;99.90
33207;DHT22;19565;46.602;11.534;2023-06-14T05:12:20;18.00;99.90
33207;DHT22;19565;46.602;11.534;2023-06-14T05:14:48;18.00;99.90
33207;DHT22;19565;46.602;11.534;2023-06-14T05:17:16;18.00;99.90
33207;DHT22;19565;46.602;11.534;2023-06-14T05:19:46;17.90;99.90
33207;DHT22;19565;46.602;11.534;2023-06-14T05:22:14;18.00;99.90
33207;DHT22;19565;46.602;11.534;2023-06-14T05:24:42;18.00;99.90
33207;DHT22;19565;46.602;11.534;2023-06-14T05:27:10;18.00;99.90
33207;DHT22;19565;46.602;11.534;2023-06-14T05:29:38;18.10;99.90
33207;DHT22;19565;46.602;11.534;2023-06-14T05:32:07;18.00;99.90
33207;DHT22;19565;46.602;11.534;2023-06-14T05:34:35;18.10;99.90
33207;DHT22;19565;46.602;11.534;2023-06-14T05:37:05;18.10;99.90
33207;DHT22;19565;46.602;11.534;2023-06-14T05:39:33;18.10;99.90
33207;DHT22;19565;46.602;11.534;2023-06-14T05:42:01;18.10;99.90
33207;DHT22;19565;46.602;11.534;2023-06-14T05:44:29;18.20;99.90
33207;DHT22;19565;46.602;11.534;2023-06-14T05:46:57;18.20;99.90
33207;DHT22;19565;46.602;11.534;2023-06-14T05:49:25;18.30;99.90
33207;DHT22;19565;46.602;11.534;2023-06-14T05:51:53;18.30;99.90
33207;DHT22;19565;46.602;11.534;2023-06-14T05:54:22;18.40;99.90
33207;DHT22;19565;46.602;11.534;2023-06-14T05:56:50;18.50;99.90
33207;DHT22;19565;46.602;11.534;2023-06-14T05:59:18;18.50;99.90
33207;DHT22;19565;46.602;11.534;2023-06-14T06:01:46;18.60;99.90
33207;DHT22;19565;46.602;11.534;2023-06-14T06:04:15;18.70;99.90
33207;DHT22;19565;46.602;11.534;2023-06-14T06:06:43;18.80;99.90
33207;DHT22;19565;46.602;11.534;2023-06-14T06:09:11;18.90;99.90
33207;DHT22;19565;46.602;11.534;2023-06-14T06:11:42;18.90;99.90
33207;DHT22;19565;46.602;11.534;2023-06-14T06:14:20;18.90;99.90
33207;DHT22;19565;46.602;11.534;2023-06-14T06:16:48;18.90;99.90
33207;DHT22;19565;46.602;11.534;2023-06-14T06:19:16;18.90;99.90
33207;DHT22;19565;46.602;11.534;2023-06-14T06:21:44;19.00;99.90
33207;DHT22;19565;46.602;11.534;2023-06-14T06:24:12;19.00;99.90
33207;DHT22;19565;46.602;11.534;2023-06-14T06:26:41;19.00;99.90
33207;DHT22;19565;46.602;11.534;2023-06-14T06:29:10;19.10;99.90
33207;DHT22;19565;46.602;11.534;2023-06-14T06:31:38;19.20;99.90
33207;DHT22;19565;46.602;11.534;2023-06-14T06:34:06;19.20;99.90
33207;DHT22;19565;46.602;11.534;2023-06-14T06:36:34;19.20;99.90
33207;DHT22;19565;46.602;11.534;2023-06-14T06:39:02;19.30;99.90
33207;DHT22;19565;46.602;11.534;2023-06-14T06:41:36;19.30;99.90
33207;DHT22;19565;46.602;11.534;2023-06-14T06:44:07;19.30;99.90
33207;DHT22;19565;46.602;11.534;2023-06-14T06:46:36;19.40;99.90
33207;DHT22;19565;46.602;11.534;2023-06-14T06:49:07;19.50;99.90
33207;DHT22;19565;46.602;11.534;2023-06-14T06:51:35;19.50;99.90
33207;DHT22;19565;46.602;11.534;2023-06-14T06:54:03;19.60;99.90
33207;DHT22;19565;46.602;11.534;2023-06-14T06:56:32;19.70;99.90
33207;DHT22;19565;46.602;11.534;2023-06-14T06:59:00;19.70;99.90
33207;DHT22;19565;46.602;11.534;2023-06-14T07:01:30;19.80;99.90
33207;DHT22;19565;46.602;11.534;2023-06-14T07:04:00;19.90;99.90
33207;DHT22;19565;46.602;11.534;2023-06-14T07:06:30;19.90;99.90
33207;DHT22;19565;46.602;11.534;2023-06-14T07:08:58;20.00;99.90
33207;DHT22;19565;46.602;11.534;2023-06-14T07:11:28;20.00;99.90
33207;DHT22;19565;46.602;11.534;2023-06-14T07:13:56;20.10;99.90
33207;DHT22;19565;46.602;11.534;2023-06-14T07:16:24;20.10;99.90
33207;DHT22;19565;46.602;11.534;2023-06-14T07:18:54;20.10;99.90
33207;DHT22;19565;46.602;11.534;2023-06-14T07:21:22;20.20;99.90
33207;DHT22;19565;46.602;11.534;2023-06-14T07:23:52;20.20;99.90
33207;DHT22;19565;46.602;11.534;2023-06-14T07:26:21;20.20;99.90
33207;DHT22;19565;46.602;11.534;2023-06-14T07:28:49;20.30;99.90
33207;DHT22;19565;46.602;11.534;2023-06-14T07:31:17;20.20;99.90
33207;DHT22;19565;46.602;11.534;2023-06-14T07:33:45;20.20;99.90
33207;DHT22;19565;46.602;11.534;2023-06-14T07:36:15;20.20;99.90
33207;DHT22;19565;46.602;11.534;2023-06-14T07:38:44;20.20;99.90
33207;DHT22;19565;46.602;11.534;2023-06-14T07:41:16;20.30;99.90
33207;DHT22;19565;46.602;11.534;2023-06-14T07:43:44;20.30;99.90
33207;DHT22;19565;46.602;11.534;2023-06-14T07:46:12;20.40;99.90
33207;DHT22;19565;46.602;11.534;2023-06-14T07:48:40;20.40;99.90
33207;DHT22;19565;46.602;11.534;2023-06-14T07:51:09;20.50;99.90
33207;DHT22;19565;46.602;11.534;2023-06-14T07:53:38;20.50;99.90
33207;DHT22;19565;46.602;11.534;2023-06-14T07:56:07;20.60;99.90
33207;DHT22;19565;46.602;11.534;2023-06-14T07:58:36;20.60;99.90
33207;DHT22;19565;46.602;11.534;2023-06-14T08:01:04;20.70;99.90
33207;DHT22;19565;46.602;11.534;2023-06-14T08:03:34;20.70;99.90
33207;DHT22;19565;46.602;11.534;2023-06-14T08:06:03;20.70;99.90
33207;DHT22;19565;46.602;11.534;2023-06-14T08:08:31;20.70;99.90
33207;DHT22;19565;46.602;11.534;2023-06-14T08:11:01;20.70;99.90
33207;DHT22;19565;46.602;11.534;2023-06-14T08:13:29;20.70;99.90
33207;DHT22;19565;46.602;11.534;2023-06-14T08:15:57;20.70;99.90
33207;DHT22;19565;46.602;11.534;2023-06-14T08:18:27;20.80;99.70
33207;DHT22;19565;46.602;11.534;2023-06-14T08:20:57;20.70;98.50
33207;DHT22;19565;46.602;11.534;2023-06-14T08:23:25;20.80;98.20
33207;DHT22;19565;46.602;11.534;2023-06-14T08:25:53;20.80;98.30
33207;DHT22;19565;46.602;11.534;2023-06-14T08:28:24;20.90;98.80
33207;DHT22;19565;46.602;11.534;2023-06-14T08:30:52;20.90;98.90
33207;DHT22;19565;46.602;11.534;2023-06-14T08:33:20;21.10;98.90
33207;DHT22;19565;46.602;11.534;2023-06-14T08:35:48;21.10;96.70
33207;DHT22;19565;46.602;11.534;2023-06-14T08:38:16;21.10;96.10
33207;DHT22;19565;46.602;11.534;2023-06-14T08:40:45;21.20;96.30
33207;DHT22;19565;46.602;11.534;2023-06-14T08:43:15;21.30;96.30
33207;DHT22;19565;46.602;11.534;2023-06-14T08:45:46;21.30;95.80
33207;DHT22;19565;46.602;11.534;2023-06-14T08:48:18;21.30;95.80
33207;DHT22;19565;46.602;11.534;2023-06-14T08:50:48;21.40;96.00
33207;DHT22;19565;46.602;11.534;2023-06-14T08:53:21;21.40;95.80
33207;DHT22;19565;46.602;11.534;2023-06-14T08:55:50;21.40;96.30
33207;DHT22;19565;46.602;11.534;2023-06-14T08:58:20;21.50;96.60
33207;DHT22;19565;46.602;11.534;2023-06-14T09:00:52;21.50;96.50
33207;DHT22;19565;46.602;11.534;2023-06-14T09:03:20;21.60;95.50
33207;DHT22;19565;46.602;11.534;2023-06-14T09:05:49;21.60;95.50
33207;DHT22;19565;46.602;11.534;2023-06-14T09:08:19;21.70;96.10
33207;DHT22;19565;46.602;11.534;2023-06-14T09:10:49;21.80;95.30
33207;DHT22;19565;46.602;11.534;2023-06-14T09:13:17;21.70;94.10
33207;DHT22;19565;46.602;11.534;2023-06-14T09:15:45;21.70;93.40
33207;DHT22;19565;46.602;11.534;2023-06-14T09:18:15;21.80;93.70
33207;DHT22;19565;46.602;11.534;2023-06-14T09:20:43;21.90;93.30
33207;DHT22;19565;46.602;11.534;2023-06-14T09:23:13;22.00;93.60
33207;DHT22;19565;46.602;11.534;2023-06-14T09:25:48;22.10;94.10
33207;DHT22;19565;46.602;11.534;2023-06-14T09:28:16;22.20;94.10
33207;DHT22;19565;46.602;11.534;2023-06-14T09:30:44;22.20;92.60
33207;DHT22;19565;46.602;11.534;2023-06-14T09:33:18;22.30;92.20
33207;DHT22;19565;46.602;11.534;2023-06-14T09:35:51;22.30;92.00
33207;DHT22;19565;46.602;11.534;2023-06-14T09:38:19;22.30;92.30
33207;DHT22;19565;46.602;11.534;2023-06-14T09:40:47;22.30;92.00
33207;DHT22;19565;46.602;11.534;2023-06-14T09:43:15;22.40;91.90
33207;DHT22;19565;46.602;11.534;2023-06-14T09:45:43;22.40;91.90
33207;DHT22;19565;46.602;11.534;2023-06-14T09:48:12;22.40;91.50
33207;DHT22;19565;46.602;11.534;2023-06-14T09:50:46;22.40;91.50
33207;DHT22;19565;46.602;11.534;2023-06-14T09:53:16;22.50;92.30
33207;DHT22;19565;46.602;11.534;2023-06-14T09:55:49;22.40;91.70
33207;DHT22;19565;46.602;11.534;2023-06-14T09:58:19;22.50;91.80
33207;DHT22;19565;46.602;11.534;2023-06-14T10:00:49;22.50;91.70
33207;DHT22;19565;46.602;11.534;2023-06-14T10:03:24;22.60;91.80
33207;DHT22;19565;46.602;11.534;2023-06-14T10:05:58;22.60;91.00
33207;DHT22;19565;46.602;11.534;2023-06-14T10:08:30;22.60;90.90
33207;DHT22;19565;46.602;11.534;2023-06-14T10:11:00;22.70;90.80
33207;DHT22;19565;46.602;11.534;2023-06-14T10:13:29;22.70;90.80
33207;DHT22;19565;46.602;11.534;2023-06-14T10:16:05;22.70;90.10
33207;DHT22;19565;46.602;11.534;2023-06-14T10:18:42;22.80;90.40
33207;DHT22;19565;46.602;11.534;2023-06-14T10:21:20;22.90;90.20
33207;DHT22;19565;46.602;11.534;2023-06-14T10:23:56;22.90;90.00
33207;DHT22;19565;46.602;11.534;2023-06-14T10:26:30;22.90;90.10
33207;DHT22;19565;46.602;11.534;2023-06-14T10:29:01;23.10;90.00
33207;DHT22;19565;46.602;11.534;2023-06-14T10:31:41;23.10;89.40
33207;DHT22;19565;46.602;11.534;2023-06-14T10:34:12;23.20;89.00
33207;DHT22;19565;46.602;11.534;2023-06-14T10:36:42;23.20;88.80
33207;DHT22;19565;46.602;11.534;2023-06-14T10:39:14;23.20;88.10
33207;DHT22;19565;46.602;11.534;2023-06-14T10:41:51;23.30;88.00
33207;DHT22;19565;46.602;11.534;2023-06-14T10:44:33;23.30;86.30
33207;DHT22;19565;46.602;11.534;2023-06-14T10:47:02;23.20;87.30
33207;DHT22;19565;46.602;11.534;2023-06-14T10:49:42;23.20;87.60
33207;DHT22;19565;46.602;11.534;2023-06-14T10:52:13;23.20;87.90
33207;DHT22;19565;46.602;11.534;2023-06-14T10:55:06;23.30;87.50
33207;DHT22;19565;46.602;11.534;2023-06-14T10:57:37;23.40;87.00
33207;DHT22;19565;46.602;11.534;2023-06-14T11:00:18;23.50;85.70
33207;DHT22;19565;46.602;11.534;2023-06-14T11:06:13;23.50;85.20
33207;DHT22;19565;46.602;11.534;2023-06-14T11:11:51;23.60;86.80
33207;DHT22;19565;46.602;11.534;2023-06-14T11:14:21;23.70;85.60
33207;DHT22;19565;46.602;11.534;2023-06-14T11:16:49;23.70;85.00
33207;DHT22;19565;46.602;11.534;2023-06-14T11:19:17;23.70;84.30
33207;DHT22;19565;46.602;11.534;2023-06-14T11:21:47;23.80;84.20
33207;DHT22;19565;46.602;11.534;2023-06-14T11:24:17;23.80;82.20
33207;DHT22;19565;46.602;11.534;2023-06-14T11:26:47;23.80;81.70
33207;DHT22;19565;46.602;11.534;2023-06-14T11:29:15;23.70;81.00
33207;DHT22;19565;46.602;11.534;2023-06-14T11:31:44;23.70;80.00
33207;DHT22;19565;46.602;11.534;2023-06-14T11:34:13;23.70;81.00
33207;DHT22;19565;46.602;11.534;2023-06-14T11:36:42;23.80;81.70
33207;DHT22;19565;46.602;11.534;2023-06-14T11:39:10;23.80;82.00
33207;DHT22;19565;46.602;11.534;2023-06-14T11:41:41;23.90;81.40
33207;DHT22;19565;46.602;11.534;2023-06-14T11:44:09;23.90;78.70
33207;DHT22;19565;46.602;11.534;2023-06-14T11:46:38;23.90;79.40
33207;DHT22;19565;46.602;11.534;2023-06-14T11:49:07;24.00;78.40
33207;DHT22;19565;46.602;11.534;2023-06-14T11:51:36;24.00;78.70
33207;DHT22;19565;46.602;11.534;2023-06-14T11:54:06;24.00;79.40
33207;DHT22;19565;46.602;11.534;2023-06-14T11:56:34;24.10;78.90
33207;DHT22;19565;46.602;11.534;2023-06-14T11:59:05;24.20;76.70
33207;DHT22;19565;46.602;11.534;2023-06-14T12:01:36;24.20;75.40
33207;DHT22;19565;46.602;11.534;2023-06-14T12:04:06;24.30;73.80
33207;DHT22;19565;46.602;11.534;2023-06-14T12:06:34;24.30;75.00
33207;DHT22;19565;46.602;11.534;2023-06-14T12:09:07;24.40;74.70
33207;DHT22;19565;46.602;11.534;2023-06-14T12:11:40;24.40;74.70
33207;DHT22;19565;46.602;11.534;2023-06-14T12:14:09;24.50;75.40
33207;DHT22;19565;46.602;11.534;2023-06-14T12:16:39;24.50;73.90
33207;DHT22;19565;46.602;11.534;2023-06-14T12:19:11;24.60;74.20
33207;DHT22;19565;46.602;11.534;2023-06-14T12:21:40;24.60;73.30
33207;DHT22;19565;46.602;11.534;2023-06-14T12:24:09;24.60;73.60
33207;DHT22;19565;46.602;11.534;2023-06-14T12:26:40;24.70;73.80
33207;DHT22;19565;46.602;11.534;2023-06-14T12:29:10;24.70;72.60
33207;DHT22;19565;46.602;11.534;2023-06-14T12:31:40;24.70;72.00
33207;DHT22;19565;46.602;11.534;2023-06-14T12:34:08;24.80;72.30
33207;DHT22;19565;46.602;11.534;2023-06-14T12:36:37;24.70;71.90
33207;DHT22;19565;46.602;11.534;2023-06-14T12:39:11;24.60;70.50
33207;DHT22;19565;46.602;11.534;2023-06-14T12:41:39;24.60;70.60
33207;DHT22;19565;46.602;11.534;2023-06-14T12:44:10;24.60;71.50
33207;DHT22;19565;46.602;11.534;2023-06-14T12:46:38;24.60;72.30
33207;DHT22;19565;46.602;11.534;2023-06-14T12:49:09;24.60;73.00
33207;DHT22;19565;46.602;11.534;2023-06-14T12:51:37;24.60;73.40
33207;DHT22;19565;46.602;11.534;2023-06-14T12:54:06;24.70;72.80
33207;DHT22;19565;46.602;11.534;2023-06-14T12:56:34;24.80;73.10
33207;DHT22;19565;46.602;11.534;2023-06-14T12:59:02;24.80;73.30
33207;DHT22;19565;46.602;11.534;2023-06-14T13:01:31;24.90;73.80
33207;DHT22;19565;46.602;11.534;2023-06-14T13:04:00;25.00;76.70
33207;DHT22;19565;46.602;11.534;2023-06-14T13:06:28;25.00;74.80
33207;DHT22;19565;46.602;11.534;2023-06-14T13:08:58;24.90;72.80
33207;DHT22;19565;46.602;11.534;2023-06-14T13:11:26;24.90;71.30
33207;DHT22;19565;46.602;11.534;2023-06-14T13:13:54;24.90;70.40
33207;DHT22;19565;46.602;11.534;2023-06-14T13:16:23;24.80;70.10
33207;DHT22;19565;46.602;11.534;2023-06-14T13:18:52;24.70;77.10
33207;DHT22;19565;46.602;11.534;2023-06-14T13:21:20;24.60;78.50
33207;DHT22;19565;46.602;11.534;2023-06-14T13:23:48;24.60;79.20
33207;DHT22;19565;46.602;11.534;2023-06-14T13:26:17;24.50;79.40
33207;DHT22;19565;46.602;11.534;2023-06-14T13:28:46;24.40;79.50
33207;DHT22;19565;46.602;11.534;2023-06-14T13:31:14;24.30;80.00
33207;DHT22;19565;46.602;11.534;2023-06-14T13:33:42;24.30;78.50
33207;DHT22;19565;46.602;11.534;2023-06-14T13:36:11;24.20;78.30
33207;DHT22;19565;46.602;11.534;2023-06-14T13:38:39;24.20;74.80
33207;DHT22;19565;46.602;11.534;2023-06-14T13:41:07;24.20;80.00
33207;DHT22;19565;46.602;11.534;2023-06-14T13:43:35;24.30;83.70
33207;DHT22;19565;46.602;11.534;2023-06-14T13:46:04;24.40;84.50
33207;DHT22;19565;46.602;11.534;2023-06-14T13:48:32;24.60;85.80
33207;DHT22;19565;46.602;11.534;2023-06-14T13:51:00;24.60;83.30
33207;DHT22;19565;46.602;11.534;2023-06-14T13:53:32;24.70;84.00
33207;DHT22;19565;46.602;11.534;2023-06-14T13:56:00;24.80;84.70
33207;DHT22;19565;46.602;11.534;2023-06-14T13:58:28;24.90;84.00
33207;DHT22;19565;46.602;11.534;2023-06-14T14:00:56;25.00;81.70
33207;DHT22;19565;46.602;11.534;2023-06-14T14:03:26;25.00;78.50
33207;DHT22;19565;46.602;11.534;2023-06-14T14:05:54;25.10;76.30
33207;DHT22;19565;46.602;11.534;2023-06-14T14:08:23;25.10;72.70
33207;DHT22;19565;46.602;11.534;2023-06-14T14:10:53;25.20;70.90
33207;DHT22;19565;46.602;11.534;2023-06-14T14:13:21;25.30;68.20
33207;DHT22;19565;46.602;11.534;2023-06-14T14:15:49;25.40;68.40
33207;DHT22;19565;46.602;11.534;2023-06-14T14:18:18;25.50;67.60
33207;DHT22;19565;46.602;11.534;2023-06-14T14:20:47;25.60;70.20
33207;DHT22;19565;46.602;11.534;2023-06-14T14:23:16;25.80;67.50
33207;DHT22;19565;46.602;11.534;2023-06-14T14:25:44;26.10;64.40
33207;DHT22;19565;46.602;11.534;2023-06-14T14:28:13;27.30;63.30
33207;DHT22;19565;46.602;11.534;2023-06-14T14:30:44;29.10;58.60
33207;DHT22;19565;46.602;11.534;2023-06-14T14:33:14;30.90;54.40
33207;DHT22;19565;46.602;11.534;2023-06-14T14:35:44;32.50;50.30
33207;DHT22;19565;46.602;11.534;2023-06-14T14:38:13;33.70;43.20
33207;DHT22;19565;46.602;11.534;2023-06-14T14:40:41;34.50;40.30
33207;DHT22;19565;46.602;11.534;2023-06-14T14:43:09;35.20;36.50
33207;DHT22;19565;46.602;11.534;2023-06-14T14:45:38;35.70;36.30
33207;DHT22;19565;46.602;11.534;2023-06-14T14:48:06;36.10;34.70
33207;DHT22;19565;46.602;11.534;2023-06-14T14:50:35;36.50;34.70
33207;DHT22;19565;46.602;11.534;2023-06-14T14:53:03;36.70;33.40
33207;DHT22;19565;46.602;11.534;2023-06-14T14:55:31;36.80;34.70
33207;DHT22;19565;46.602;11.534;2023-06-14T14:58:01;35.80;33.20
33207;DHT22;19565;46.602;11.534;2023-06-14T15:00:30;34.30;35.40
33207;DHT22;19565;46.602;11.534;2023-06-14T15:02:59;32.80;39.90
33207;DHT22;19565;46.602;11.534;2023-06-14T15:05:27;32.50;42.20
33207;DHT22;19565;46.602;11.534;2023-06-14T15:07:55;33.40;40.60
33207;DHT22;19565;46.602;11.534;2023-06-14T15:10:23;33.80;40.80
33207;DHT22;19565;46.602;11.534;2023-06-14T15:12:51;33.00;42.90
33207;DHT22;19565;46.602;11.534;2023-06-14T15:15:21;31.90;43.90
33207;DHT22;19565;46.602;11.534;2023-06-14T15:17:49;30.90;46.80
33207;DHT22;19565;46.602;11.534;2023-06-14T15:20:19;30.00;49.80
33207;DHT22;19565;46.602;11.534;2023-06-14T15:22:47;29.50;50.70
33207;DHT22;19565;46.602;11.534;2023-06-14T15:25:16;30.30;51.00
33207;DHT22;19565;46.602;11.534;2023-06-14T15:27:45;31.80;47.60
33207;DHT22;19565;46.602;11.534;2023-06-14T15:30:13;31.90;47.90
33207;DHT22;19565;46.602;11.534;2023-06-14T15:32:42;31.20;48.00
33207;DHT22;19565;46.602;11.534;2023-06-14T15:35:10;30.30;50.00